createdAt,value
2022-09-01T04:08:01.994Z,2.42
2022-09-01T04:11:13.853Z,2.08
2022-09-01T04:14:16.090Z,2.20
2022-09-01T04:17:37.258Z,2.35
2022-09-01T04:20:48.430Z,2.50
2022-09-01T04:23:51.207Z,1.98
2022-09-01T04:26:54.650Z,2.47
2022-09-01T04:29:57.757Z,2.25
2022-09-01T04:33:00.881Z,2.03
2022-09-01T04:36:14.416Z,2.30
2022-09-01T04:39:17.498Z,2.30
2022-09-01T04:42:23.933Z,1.92
2022-09-01T04:45:27.826Z,2.00
2022-09-01T04:48:31.749Z,2.00
2022-09-01T04:51:35.507Z,2.33
2022-09-01T04:54:38.540Z,2.72
2022-09-01T04:57:42.362Z,2.17
2022-09-01T05:00:48.217Z,2.30
2022-09-01T05:04:03.906Z,2.50
2022-09-01T05:07:08.522Z,2.47
2022-09-01T05:10:10.813Z,2.35
2022-09-01T05:13:17.537Z,2.45
2022-09-01T05:16:25.266Z,1.92
2022-09-01T05:19:29.812Z,2.70
2022-09-01T05:22:33.601Z,2.33
2022-09-01T05:25:44.121Z,2.58
2022-09-01T05:28:48.879Z,2.53
2022-09-01T05:31:54.617Z,2.62
2022-09-01T05:34:56.978Z,2.47
2022-09-01T05:37:59.492Z,2.62
2022-09-01T05:41:04.334Z,2.28
2022-09-01T05:44:08.605Z,2.20
2022-09-01T05:47:20.031Z,2.35
2022-09-01T05:50:23.902Z,2.47
2022-09-01T05:53:28.829Z,2.62
2022-09-01T05:56:32.581Z,2.40
2022-09-01T05:59:35.798Z,2.40
2022-09-01T06:02:39.939Z,2.80
2022-09-01T06:05:42.930Z,2.90
2022-09-01T06:08:49.161Z,2.30
2022-09-01T06:11:51.885Z,2.10
2022-09-01T06:14:55.478Z,2.30
2022-09-01T06:17:59.180Z,2.40
2022-09-01T06:21:08.321Z,2.17
2022-09-01T06:24:10.727Z,2.05
2022-09-01T06:27:12.886Z,2.20
2022-09-01T06:30:26.516Z,2.87
2022-09-01T06:33:28.850Z,2.30
2022-09-01T06:36:36.513Z,2.00
2022-09-01T06:39:39.240Z,2.35
2022-09-01T06:42:43.237Z,2.33
2022-09-01T06:45:54.262Z,2.42
2022-09-01T06:48:58.869Z,2.28
2022-09-01T06:52:03.805Z,2.50
2022-09-01T06:55:07.907Z,2.40
2022-09-01T06:58:21.427Z,2.72
2022-09-01T07:01:27.522Z,2.58
2022-09-01T07:04:31.404Z,2.25
2022-09-01T07:12:08.111Z,2.30
2022-09-01T07:14:31.013Z,2.50
2022-09-01T07:17:33.075Z,2.47
2022-09-01T07:21:02.789Z,2.92
2022-09-01T07:24:10.284Z,2.30
2022-09-01T07:27:13.947Z,2.28
2022-09-01T07:33:54.193Z,2.50
2022-09-01T07:43:51.288Z,2.28
2022-09-01T07:53:51.266Z,2.15
2022-09-01T07:56:55.487Z,2.20
2022-09-01T07:59:59.631Z,2.22
2022-09-01T08:03:04.124Z,2.67
2022-09-01T08:06:12.150Z,1.95
2022-09-01T08:09:32.981Z,2.65
2022-09-01T08:12:37.598Z,2.40
2022-09-01T08:16:06.466Z,2.45
2022-09-01T08:19:03.480Z,2.10
2022-09-01T08:22:06.011Z,2.30
2022-09-01T08:25:09.800Z,1.90
2022-09-01T08:28:14.908Z,2.10
2022-09-01T08:31:20.081Z,2.10
2022-09-01T08:34:25.336Z,1.77
2022-09-01T08:37:28.142Z,1.70
2022-09-01T08:40:30.363Z,1.75
2022-09-01T08:43:50.274Z,1.90
2022-09-01T08:47:08.288Z,2.47
2022-09-01T08:50:20.609Z,1.60
2022-09-01T08:53:32.910Z,1.90
2022-09-01T08:56:37.437Z,1.83
2022-09-01T08:59:40.305Z,1.90
2022-09-01T09:03:08.614Z,1.90
2022-09-01T09:06:17.338Z,1.83
2022-09-01T09:09:32.465Z,1.87
2022-09-01T09:16:18.737Z,2.10
2022-09-01T09:19:34.819Z,2.20
2022-09-01T09:22:37.407Z,1.92
2022-09-01T09:25:39.469Z,2.15
2022-09-01T09:28:43.090Z,1.85
2022-09-01T09:31:50.452Z,2.10
2022-09-01T09:34:53.074Z,2.00
2022-09-01T09:37:56.230Z,1.73
2022-09-01T09:41:18.701Z,1.70
2022-09-01T09:44:29.834Z,1.60
2022-09-01T09:47:44.007Z,2.15
2022-09-01T09:50:46.704Z,2.00
2022-09-01T09:53:49.422Z,2.20
2022-09-01T09:57:11.922Z,1.65
2022-09-01T10:00:33.998Z,2.53
2022-09-01T10:03:42.526Z,2.20
2022-09-01T10:06:46.824Z,1.73
2022-09-01T10:09:50.981Z,1.90
2022-09-01T10:12:54.778Z,1.90
2022-09-01T10:16:00.118Z,1.95
2022-09-01T10:19:02.491Z,2.00
2022-09-01T10:22:05.106Z,2.08
2022-09-01T10:25:14.234Z,2.15
2022-09-01T10:28:24.366Z,1.67
2022-09-01T10:31:29.492Z,1.90
2022-09-01T10:34:37.545Z,1.62
2022-09-01T10:37:41.414Z,1.80
2022-09-01T10:41:07.191Z,1.60
2022-09-01T10:44:19.397Z,1.50
2022-09-01T10:47:30.087Z,1.73
2022-09-01T10:50:35.502Z,1.52
2022-09-01T10:53:47.017Z,2.75
2022-09-01T10:56:53.334Z,1.70
2022-09-01T10:59:58.283Z,1.30
2022-09-01T11:07:13.063Z,1.50
2022-09-01T11:10:32.369Z,1.45
2022-09-01T11:13:54.885Z,1.33
2022-09-01T11:17:42.338Z,1.37
2022-09-01T11:20:45.588Z,1.27
2022-09-01T11:23:48.081Z,1.70
2022-09-01T11:26:50.894Z,1.30
2022-09-01T11:29:59.836Z,1.50
2022-09-01T11:33:34.462Z,1.60
2022-09-01T11:36:48.995Z,1.40
2022-09-01T11:39:58.469Z,1.48
2022-09-01T11:43:12.434Z,1.50
2022-09-01T11:46:32.642Z,1.00
2022-09-01T11:49:46.551Z,1.50
2022-09-01T11:53:12.086Z,1.37
2022-09-01T11:56:17.750Z,1.30
2022-09-01T12:02:44.480Z,1.37
2022-09-01T12:05:50.776Z,1.30
2022-09-01T12:08:59.898Z,1.00
2022-09-01T12:12:02.939Z,1.40
2022-09-01T12:15:24.955Z,1.30
2022-09-01T12:18:30.309Z,1.65
2022-09-01T12:21:36.441Z,1.27
2022-09-01T12:24:38.917Z,1.45
2022-09-01T12:27:41.094Z,1.30
2022-09-01T12:30:44.778Z,1.25
2022-09-01T12:33:48.099Z,1.40
2022-09-01T12:37:16.560Z,1.50
2022-09-01T12:40:37.362Z,1.30
2022-09-01T12:43:41.927Z,1.27
2022-09-01T12:46:46.731Z,1.30
2022-09-01T12:49:52.108Z,1.40
2022-09-01T12:53:01.901Z,1.62
2022-09-01T12:56:24.461Z,1.30
2022-09-01T12:59:36.039Z,1.20
2022-09-01T13:02:46.050Z,1.40
2022-09-01T13:05:53.129Z,1.48
2022-09-01T13:08:56.715Z,1.20
2022-09-01T13:12:19.461Z,1.20
2022-09-01T13:15:21.960Z,2.28
2022-09-01T13:18:25.738Z,1.27
2022-09-01T13:21:28.781Z,1.37
2022-09-01T13:24:31.940Z,1.50
2022-09-01T13:27:34.430Z,1.33
2022-09-01T13:30:36.933Z,1.52
2022-09-01T13:37:01.527Z,1.40
2022-09-01T13:40:15.480Z,1.00
2022-09-01T13:43:20.755Z,1.20
2022-09-01T13:46:23.685Z,1.40
2022-09-01T13:52:55.277Z,1.20
2022-09-01T13:59:04.975Z,1.20
2022-09-01T14:02:07.474Z,1.10
2022-09-01T14:05:09.978Z,1.23
2022-09-01T14:08:13.671Z,1.30
2022-09-01T14:11:17.730Z,1.40
2022-09-01T14:14:19.885Z,1.62
2022-09-01T14:17:22.205Z,1.35
2022-09-01T14:20:27.425Z,1.15
2022-09-01T14:23:29.946Z,1.62
2022-09-01T14:26:32.061Z,1.00
2022-09-01T14:29:34.410Z,1.00
2022-09-01T14:32:36.478Z,1.20
2022-09-01T14:35:41.493Z,1.08
2022-09-01T14:38:43.600Z,1.10
2022-09-01T14:41:45.941Z,1.37
2022-09-01T14:44:48.412Z,0.93
2022-09-01T14:47:54.181Z,1.20
2022-09-01T14:50:56.242Z,1.33
2022-09-01T14:53:58.591Z,1.10
2022-09-01T15:00:27.090Z,1.00
